NSZ50H EFTP-ESSA
Flight info
| Callsign | NSZ50H |
|---|---|
| Flight time | 0h 39m |
| Altitude | 30000 |
| Route | NEBAB DCT KELAS L87 HMR |
| Aircraft | B738/M-SADE3FGHIJ7LP2RWXY/SB1D1G1 |
Departure
| Time | 2026-04-22 21:35 |
|---|---|
| Airport | Tampere-Pirkkala Airport (EFTP) |
Arrival
| Time | 2026-04-22 22:14 |
|---|---|
| Airport | Stockholm-Arlanda Airport (ESSA) |
| Time | Latitude | Longitude | Altitude | Speed | Heading |
|---|---|---|---|---|---|
| 2026-04-22 21:24 | 61.41908 | 23.61426 | 384 ft | 0 kts | 62° |
| 2026-04-22 21:32 | 61.41908 | 23.61428 | 384 ft | 1 kts | 62° |
| 2026-04-22 21:32 | 61.41936 | 23.61511 | 391 ft | 12 kts | 20° |
| 2026-04-22 21:32 | 61.41956 | 23.61458 | 384 ft | 3 kts | 263° |
| 2026-04-22 21:33 | 61.41965 | 23.61506 | 384 ft | 1 kts | 239° |
| 2026-04-22 21:33 | 61.41899 | 23.61437 | 360 ft | 24 kts | 212° |
| 2026-04-22 21:33 | 61.41751 | 23.61097 | 384 ft | 39 kts | 243° |
| 2026-04-22 21:33 | 61.41630 | 23.60580 | 385 ft | 40 kts | 244° |
| 2026-04-22 21:34 | 61.41507 | 23.60028 | 388 ft | 42 kts | 245° |
| 2026-04-22 21:34 | 61.41380 | 23.59591 | 396 ft | 28 kts | 200° |
| 2026-04-22 21:34 | 61.41268 | 23.59797 | 388 ft | 25 kts | 63° |
| 2026-04-22 21:34 | 61.41420 | 23.60444 | 389 ft | 89 kts | 65° |
| 2026-04-22 21:35 | 61.41791 | 23.62104 | 427 ft | 154 kts | 60° |
| 2026-04-22 21:35 | 61.42241 | 23.64215 | 1242 ft | 163 kts | 66° |
| 2026-04-22 21:35 | 61.42350 | 23.66618 | 2246 ft | 181 kts | 89° |
| 2026-04-22 21:35 | 61.41797 | 23.69253 | 2785 ft | 219 kts | 124° |
| 2026-04-22 21:36 | 61.41382 | 23.71622 | 2884 ft | 177 kts | 5° |
| 2026-04-22 21:36 | 61.42002 | 23.69077 | 1622 ft | 269 kts | 281° |
| 2026-04-22 21:36 | 61.42165 | 23.64667 | 765 ft | 327 kts | 270° |
| 2026-04-22 21:36 | 61.41255 | 23.60643 | 1588 ft | 276 kts | 229° |
| 2026-04-22 21:37 | 61.39919 | 23.58511 | 4300 ft | 252 kts | 220° |
| 2026-04-22 21:37 | 61.38396 | 23.56215 | 4866 ft | 289 kts | 223° |
| 2026-04-22 21:37 | 61.36961 | 23.53172 | 5856 ft | 293 kts | 240° |
| 2026-04-22 21:37 | 61.35743 | 23.49772 | 6741 ft | 302 kts | 241° |
| 2026-04-22 21:38 | 61.34424 | 23.46035 | 7040 ft | 331 kts | 240° |
| 2026-04-22 21:38 | 61.33004 | 23.42079 | 7332 ft | 359 kts | 239° |
| 2026-04-22 21:38 | 61.31441 | 23.37842 | 7867 ft | 375 kts | 239° |
| 2026-04-22 21:38 | 61.29812 | 23.33528 | 8665 ft | 382 kts | 238° |
| 2026-04-22 21:39 | 61.28146 | 23.29172 | 9536 ft | 387 kts | 238° |
| 2026-04-22 21:39 | 61.26452 | 23.24764 | 10297 ft | 393 kts | 238° |
| 2026-04-22 21:39 | 61.24726 | 23.20287 | 11034 ft | 399 kts | 239° |
| 2026-04-22 21:39 | 61.22982 | 23.15774 | 11814 ft | 404 kts | 239° |
| 2026-04-22 21:40 | 61.21209 | 23.11190 | 12562 ft | 409 kts | 239° |
| 2026-04-22 21:40 | 61.19416 | 23.06559 | 13302 ft | 415 kts | 239° |
| 2026-04-22 21:40 | 61.17620 | 23.01931 | 14000 ft | 420 kts | 239° |
| 2026-04-22 21:40 | 61.15775 | 22.97182 | 14615 ft | 425 kts | 239° |
| 2026-04-22 21:41 | 61.13909 | 22.92393 | 15261 ft | 430 kts | 239° |
| 2026-04-22 21:41 | 61.12059 | 22.87518 | 15894 ft | 431 kts | 244° |
| 2026-04-22 21:41 | 61.10512 | 22.82237 | 16519 ft | 426 kts | 253° |
| 2026-04-22 21:41 | 61.09374 | 22.76642 | 17137 ft | 422 kts | 258° |
| 2026-04-22 21:42 | 61.08006 | 22.71115 | 17703 ft | 441 kts | 247° |
| 2026-04-22 21:42 | 61.06302 | 22.65783 | 18374 ft | 446 kts | 244° |
| 2026-04-22 21:42 | 61.04540 | 22.60470 | 18943 ft | 449 kts | 244° |
| 2026-04-22 21:42 | 61.02770 | 22.55125 | 19501 ft | 453 kts | 244° |
| 2026-04-22 21:43 | 61.01028 | 22.49793 | 20045 ft | 455 kts | 245° |
| 2026-04-22 21:43 | 60.99270 | 22.44336 | 20584 ft | 458 kts | 245° |
| 2026-04-22 21:43 | 60.97517 | 22.38833 | 21119 ft | 461 kts | 245° |
| 2026-04-22 21:43 | 60.95762 | 22.33291 | 21621 ft | 463 kts | 245° |
| 2026-04-22 21:44 | 60.94001 | 22.27722 | 22206 ft | 465 kts | 245° |
| 2026-04-22 21:44 | 60.92233 | 22.22130 | 22703 ft | 468 kts | 244° |
| 2026-04-22 21:44 | 60.90452 | 22.16510 | 23163 ft | 472 kts | 244° |
| 2026-04-22 21:44 | 60.88658 | 22.10862 | 23620 ft | 475 kts | 244° |
| 2026-04-22 21:45 | 60.86841 | 22.05162 | 24014 ft | 478 kts | 244° |
| 2026-04-22 21:45 | 60.85006 | 21.99420 | 24409 ft | 481 kts | 244° |
| 2026-04-22 21:45 | 60.83165 | 21.93677 | 24794 ft | 483 kts | 244° |
| 2026-04-22 21:45 | 60.81305 | 21.87892 | 25158 ft | 486 kts | 244° |
| 2026-04-22 21:46 | 60.79439 | 21.82101 | 25534 ft | 489 kts | 244° |
| 2026-04-22 21:46 | 60.77556 | 21.76271 | 25892 ft | 492 kts | 244° |
| 2026-04-22 21:46 | 60.75687 | 21.70501 | 26208 ft | 494 kts | 244° |
| 2026-04-22 21:46 | 60.73783 | 21.64638 | 26564 ft | 496 kts | 244° |
| 2026-04-22 21:47 | 60.71862 | 21.58739 | 26852 ft | 499 kts | 245° |
| 2026-04-22 21:47 | 60.69935 | 21.52834 | 27191 ft | 501 kts | 245° |
| 2026-04-22 21:47 | 60.67995 | 21.46900 | 27514 ft | 503 kts | 245° |
| 2026-04-22 21:47 | 60.66046 | 21.40956 | 27844 ft | 505 kts | 245° |
| 2026-04-22 21:48 | 60.64085 | 21.34997 | 28260 ft | 505 kts | 245° |
| 2026-04-22 21:48 | 60.62127 | 21.29067 | 28735 ft | 504 kts | 245° |
| 2026-04-22 21:48 | 60.60171 | 21.23158 | 29221 ft | 503 kts | 245° |
| 2026-04-22 21:48 | 60.58219 | 21.17274 | 29726 ft | 501 kts | 246° |
| 2026-04-22 21:49 | 60.56267 | 21.11400 | 30018 ft | 503 kts | 246° |
| 2026-04-22 21:49 | 60.54296 | 21.05470 | 29967 ft | 506 kts | 246° |
| 2026-04-22 21:49 | 60.50374 | 20.93734 | 30002 ft | 503 kts | 245° |
| 2026-04-22 21:50 | 60.46446 | 20.82061 | 30019 ft | 501 kts | 245° |
| 2026-04-22 21:50 | 60.42510 | 20.70395 | 30020 ft | 502 kts | 245° |
| 2026-04-22 21:51 | 60.38570 | 20.58795 | 29977 ft | 490 kts | 245° |
| 2026-04-22 21:51 | 60.36666 | 20.53255 | 29953 ft | 472 kts | 245° |
| 2026-04-22 21:52 | 60.33050 | 20.42761 | 29949 ft | 439 kts | 246° |
| 2026-04-22 21:52 | 60.31336 | 20.37778 | 29970 ft | 424 kts | 246° |
| 2026-04-22 21:52 | 60.29696 | 20.33014 | 29985 ft | 411 kts | 247° |
| 2026-04-22 21:52 | 60.28087 | 20.28337 | 29908 ft | 400 kts | 247° |
| 2026-04-22 21:53 | 60.26510 | 20.23744 | 29452 ft | 399 kts | 247° |
| 2026-04-22 21:53 | 60.24911 | 20.19047 | 28428 ft | 413 kts | 247° |
| 2026-04-22 21:53 | 60.23253 | 20.14168 | 27293 ft | 430 kts | 246° |
| 2026-04-22 21:53 | 60.21519 | 20.09097 | 26038 ft | 449 kts | 245° |
| 2026-04-22 21:54 | 60.19705 | 20.03834 | 24763 ft | 466 kts | 244° |
| 2026-04-22 21:54 | 60.17846 | 19.98492 | 23685 ft | 477 kts | 243° |
| 2026-04-22 21:54 | 60.15925 | 19.93024 | 22825 ft | 477 kts | 243° |
| 2026-04-22 21:54 | 60.14017 | 19.87636 | 22228 ft | 470 kts | 243° |
| 2026-04-22 21:55 | 60.12135 | 19.82334 | 21673 ft | 462 kts | 243° |
| 2026-04-22 21:55 | 60.10281 | 19.77100 | 20878 ft | 460 kts | 242° |
| 2026-04-22 21:55 | 60.08421 | 19.71828 | 19794 ft | 466 kts | 242° |
| 2026-04-22 21:55 | 60.06551 | 19.66528 | 18982 ft | 465 kts | 241° |
| 2026-04-22 21:56 | 60.04691 | 19.61276 | 18326 ft | 460 kts | 241° |
| 2026-04-22 21:56 | 60.02843 | 19.56080 | 17628 ft | 454 kts | 241° |
| 2026-04-22 21:56 | 60.01019 | 19.50963 | 16909 ft | 448 kts | 241° |
| 2026-04-22 21:56 | 59.99217 | 19.45916 | 16180 ft | 444 kts | 241° |
| 2026-04-22 21:57 | 59.97455 | 19.40986 | 15475 ft | 440 kts | 241° |
| 2026-04-22 21:57 | 59.95685 | 19.36044 | 14806 ft | 436 kts | 241° |
| 2026-04-22 21:57 | 59.93927 | 19.31146 | 14144 ft | 432 kts | 241° |
| 2026-04-22 21:57 | 59.92180 | 19.26288 | 13424 ft | 428 kts | 240° |
| 2026-04-22 21:58 | 59.90448 | 19.21480 | 12698 ft | 424 kts | 240° |
| 2026-04-22 21:58 | 59.88730 | 19.16723 | 12018 ft | 420 kts | 240° |
| 2026-04-22 21:58 | 59.87030 | 19.12027 | 11374 ft | 416 kts | 240° |
| 2026-04-22 21:58 | 59.85352 | 19.07402 | 10970 ft | 406 kts | 240° |
| 2026-04-22 21:59 | 59.83724 | 19.02935 | 10753 ft | 392 kts | 240° |
| 2026-04-22 21:59 | 59.82153 | 18.98632 | 10586 ft | 378 kts | 240° |
| 2026-04-22 21:59 | 59.80633 | 18.94474 | 10423 ft | 366 kts | 241° |
| 2026-04-22 21:59 | 59.79166 | 18.90461 | 10268 ft | 354 kts | 241° |
| 2026-04-22 22:00 | 59.77737 | 18.86554 | 10118 ft | 344 kts | 241° |
| 2026-04-22 22:00 | 59.76354 | 18.82779 | 10030 ft | 332 kts | 242° |
| 2026-04-22 22:00 | 59.75020 | 18.79147 | 9895 ft | 322 kts | 242° |
| 2026-04-22 22:00 | 59.73683 | 18.75488 | 9317 ft | 328 kts | 241° |
| 2026-04-22 22:01 | 59.72359 | 18.71877 | 8934 ft | 327 kts | 240° |
| 2026-04-22 22:01 | 59.71025 | 18.68250 | 8588 ft | 324 kts | 240° |
| 2026-04-22 22:01 | 59.69700 | 18.64661 | 8283 ft | 320 kts | 240° |
| 2026-04-22 22:01 | 59.68404 | 18.61156 | 7952 ft | 316 kts | 239° |
| 2026-04-22 22:02 | 59.67117 | 18.57680 | 7685 ft | 311 kts | 239° |
| 2026-04-22 22:02 | 59.65841 | 18.54241 | 7389 ft | 308 kts | 239° |
| 2026-04-22 22:02 | 59.64576 | 18.50833 | 7097 ft | 305 kts | 239° |
| 2026-04-22 22:02 | 59.63326 | 18.47473 | 6802 ft | 302 kts | 238° |
| 2026-04-22 22:03 | 59.62084 | 18.44138 | 6518 ft | 299 kts | 238° |
| 2026-04-22 22:03 | 59.60863 | 18.40866 | 6375 ft | 290 kts | 238° |
| 2026-04-22 22:03 | 59.59684 | 18.37714 | 6287 ft | 280 kts | 238° |
| 2026-04-22 22:03 | 59.58522 | 18.34701 | 6204 ft | 271 kts | 236° |
| 2026-04-22 22:04 | 59.57366 | 18.31891 | 6126 ft | 263 kts | 236° |
| 2026-04-22 22:04 | 59.56215 | 18.29125 | 5840 ft | 262 kts | 236° |
| 2026-04-22 22:04 | 59.55027 | 18.26246 | 5236 ft | 277 kts | 235° |
| 2026-04-22 22:04 | 59.53802 | 18.23258 | 5042 ft | 282 kts | 236° |
| 2026-04-22 22:05 | 59.52561 | 18.20220 | 4852 ft | 286 kts | 235° |
| 2026-04-22 22:05 | 59.51309 | 18.17143 | 4675 ft | 287 kts | 236° |
| 2026-04-22 22:05 | 59.50055 | 18.14071 | 4478 ft | 288 kts | 236° |
| 2026-04-22 22:05 | 59.48813 | 18.11045 | 4300 ft | 288 kts | 235° |
| 2026-04-22 22:06 | 59.47558 | 18.07980 | 4096 ft | 288 kts | 235° |
| 2026-04-22 22:06 | 59.46493 | 18.04694 | 3859 ft | 282 kts | 256° |
| 2026-04-22 22:06 | 59.46183 | 18.01015 | 3665 ft | 270 kts | 275° |
| 2026-04-22 22:06 | 59.45936 | 17.97363 | 3454 ft | 275 kts | 256° |
| 2026-04-22 22:07 | 59.45050 | 17.94031 | 3319 ft | 272 kts | 244° |
| 2026-04-22 22:07 | 59.44064 | 17.90914 | 3256 ft | 263 kts | 244° |
| 2026-04-22 22:07 | 59.43096 | 17.87952 | 3212 ft | 253 kts | 244° |
| 2026-04-22 22:07 | 59.42415 | 17.84949 | 3104 ft | 228 kts | 271° |
| 2026-04-22 22:08 | 59.42615 | 17.82178 | 3021 ft | 186 kts | 312° |
| 2026-04-22 22:08 | 59.43511 | 17.80961 | 2989 ft | 146 kts | 0° |
| 2026-04-22 22:08 | 59.44382 | 17.81671 | 3040 ft | 140 kts | 29° |
| 2026-04-22 22:08 | 59.45252 | 17.82496 | 3028 ft | 137 kts | 20° |
| 2026-04-22 22:09 | 59.46132 | 17.83226 | 3013 ft | 135 kts | 19° |
| 2026-04-22 22:09 | 59.46994 | 17.83934 | 3005 ft | 134 kts | 24° |
| 2026-04-22 22:09 | 59.47824 | 17.84767 | 3014 ft | 135 kts | 19° |
| 2026-04-22 22:09 | 59.48717 | 17.85373 | 3013 ft | 136 kts | 15° |
| 2026-04-22 22:10 | 59.49661 | 17.85961 | 3006 ft | 153 kts | 16° |
| 2026-04-22 22:10 | 59.50714 | 17.86525 | 2833 ft | 158 kts | 12° |
| 2026-04-22 22:10 | 59.51784 | 17.86976 | 2612 ft | 155 kts | 10° |
| 2026-04-22 22:10 | 59.52831 | 17.87371 | 2411 ft | 150 kts | 9° |
| 2026-04-22 22:11 | 59.53842 | 17.87745 | 2191 ft | 144 kts | 8° |
| 2026-04-22 22:11 | 59.54805 | 17.88092 | 2000 ft | 138 kts | 8° |
| 2026-04-22 22:11 | 59.55721 | 17.88424 | 1823 ft | 133 kts | 7° |
| 2026-04-22 22:11 | 59.56636 | 17.88754 | 1642 ft | 133 kts | 7° |
| 2026-04-22 22:12 | 59.57539 | 17.89082 | 1462 ft | 133 kts | 8° |
| 2026-04-22 22:12 | 59.58436 | 17.89409 | 1275 ft | 127 kts | 7° |
| 2026-04-22 22:12 | 59.59274 | 17.89711 | 1118 ft | 122 kts | 8° |
| 2026-04-22 22:12 | 59.60129 | 17.90019 | 928 ft | 129 kts | 9° |
| 2026-04-22 22:13 | 59.61027 | 17.90353 | 737 ft | 133 kts | 8° |
| 2026-04-22 22:13 | 59.61943 | 17.90680 | 528 ft | 135 kts | 7° |
| 2026-04-22 22:13 | 59.62872 | 17.91010 | 323 ft | 136 kts | 8° |
| 2026-04-22 22:13 | 59.63807 | 17.91357 | 136 ft | 138 kts | 7° |
| 2026-04-22 22:14 | 59.64681 | 17.91668 | 109 ft | 108 kts | 10° |
| 2026-04-22 22:14 | 59.65204 | 17.91851 | 104 ft | 45 kts | 14° |
| 2026-04-22 22:14 | 59.65372 | 17.91917 | 104 ft | 22 kts | 11° |
| 2026-04-22 22:14 | 59.65556 | 17.91974 | 106 ft | 28 kts | 12° |
| 2026-04-22 22:15 | 59.65553 | 17.92120 | 104 ft | 14 kts | 150° |
| 2026-04-22 22:15 | 59.65435 | 17.92202 | 102 ft | 28 kts | 159° |
| 2026-04-22 22:15 | 59.65178 | 17.92241 | 106 ft | 44 kts | 199° |
| 2026-04-22 22:15 | 59.64872 | 17.92090 | 105 ft | 47 kts | 188° |
| 2026-04-22 22:16 | 59.64554 | 17.91985 | 109 ft | 45 kts | 189° |
| 2026-04-22 22:16 | 59.64332 | 17.92111 | 112 ft | 31 kts | 146° |
| 2026-04-22 22:16 | 59.64194 | 17.92505 | 112 ft | 40 kts | 126° |
| 2026-04-22 22:16 | 59.63966 | 17.92906 | 111 ft | 47 kts | 137° |
| 2026-04-22 22:17 | 59.63993 | 17.93217 | 108 ft | 31 kts | 334° |
| 2026-04-22 22:17 | 59.64117 | 17.92803 | 111 ft | 41 kts | 294° |
| 2026-04-22 22:17 | 59.64308 | 17.92469 | 113 ft | 39 kts | 0° |
| 2026-04-22 22:17 | 59.64452 | 17.92575 | 111 ft | 18 kts | 56° |
| 2026-04-22 22:18 | 59.64470 | 17.92630 | 111 ft | 0 kts | 56° |